createdAt,value
2022-09-22T00:00:38.939Z,1021.02
2022-09-22T00:01:38.940Z,1021.03
2022-09-22T00:02:38.873Z,1021.00
2022-09-22T00:03:38.878Z,1021.07
2022-09-22T00:04:38.882Z,1021.03
2022-09-22T00:05:38.854Z,1021.01
2022-09-22T00:06:39.008Z,1021.04
2022-09-22T00:07:38.823Z,1021.02
2022-09-22T00:08:38.815Z,1021.04
2022-09-22T00:09:38.794Z,1021.05
2022-09-22T00:10:38.794Z,1021.02
2022-09-22T00:11:38.773Z,1021.05
2022-09-22T00:12:38.804Z,1021.07
2022-09-22T00:13:38.754Z,1020.98
2022-09-22T00:14:38.751Z,1021.01
2022-09-22T00:15:38.748Z,1021.02
2022-09-22T00:16:38.830Z,1021.05
2022-09-22T00:17:38.743Z,1021.08
2022-09-22T00:18:38.705Z,1021.04
2022-09-22T00:19:38.697Z,1021.04
2022-09-22T00:20:38.685Z,1021.06
2022-09-22T00:21:38.668Z,1021.05
2022-09-22T00:22:38.660Z,1021.07
2022-09-22T00:23:38.677Z,1021.05
2022-09-22T00:24:38.638Z,1021.04
2022-09-22T00:25:38.636Z,1021.06
2022-09-22T00:26:38.621Z,1021.06
2022-09-22T00:27:38.661Z,1021.05
2022-09-22T00:28:38.605Z,1021.03
2022-09-22T00:29:38.612Z,1021.04
2022-09-22T00:30:38.579Z,1021.01
2022-09-22T00:31:38.615Z,1021.04
2022-09-22T00:32:38.575Z,1020.96
2022-09-22T00:33:38.557Z,1021.02
2022-09-22T00:34:38.543Z,1021.00
2022-09-22T00:35:38.511Z,1020.96
2022-09-22T00:36:38.510Z,1021.02
2022-09-22T00:37:38.499Z,1020.97
2022-09-22T00:38:38.512Z,1021.02
2022-09-22T00:39:38.482Z,1021.00
2022-09-22T00:40:38.558Z,1020.94
2022-09-22T00:41:38.443Z,1020.97
2022-09-22T00:42:38.458Z,1021.01
2022-09-22T00:43:38.462Z,1020.98
2022-09-22T00:44:38.415Z,1020.99
2022-09-22T00:45:39.354Z,1020.93
2022-09-22T00:46:38.437Z,1020.98
2022-09-22T00:47:38.374Z,1020.95
2022-09-22T00:48:38.370Z,1020.97
2022-09-22T00:49:38.372Z,1020.96
2022-09-22T00:50:38.344Z,1020.95
2022-09-22T00:51:39.322Z,1020.92
2022-09-22T00:52:38.369Z,1020.97
2022-09-22T00:53:38.365Z,1020.92
2022-09-22T00:54:38.314Z,1020.89
2022-09-22T00:55:38.282Z,1020.90
2022-09-22T00:56:38.295Z,1020.91
2022-09-22T00:57:38.265Z,1020.89
2022-09-22T00:58:38.269Z,1020.88
2022-09-22T00:59:38.305Z,1020.89
2022-09-22T01:00:38.300Z,1020.89
2022-09-22T01:01:38.288Z,1020.91
2022-09-22T01:02:38.233Z,1020.95
2022-09-22T01:03:38.225Z,1020.88
2022-09-22T01:04:38.199Z,1020.88
2022-09-22T01:05:38.217Z,1020.85
2022-09-22T01:06:38.177Z,1020.87
2022-09-22T01:07:38.157Z,1020.89
2022-09-22T01:08:38.163Z,1020.87
2022-09-22T01:09:38.132Z,1020.84
2022-09-22T01:10:38.130Z,1020.85
2022-09-22T01:11:38.138Z,1020.78
2022-09-22T01:12:38.123Z,1020.81
2022-09-22T01:13:39.048Z,1020.83
2022-09-22T01:14:38.084Z,1020.78
2022-09-22T01:15:38.140Z,1020.84
2022-09-22T01:16:38.062Z,1020.77
2022-09-22T01:17:38.080Z,1020.78
2022-09-22T01:18:38.040Z,1020.77
2022-09-22T01:19:38.011Z,1020.76
2022-09-22T01:20:38.011Z,1020.75
2022-09-22T01:21:37.999Z,1020.72
2022-09-22T01:22:38.021Z,1020.77
2022-09-22T01:23:37.980Z,1020.70
2022-09-22T01:24:37.969Z,1020.73
2022-09-22T01:25:37.961Z,1020.70
2022-09-22T01:26:37.967Z,1020.73
2022-09-22T01:27:37.972Z,1020.70
2022-09-22T01:28:37.936Z,1020.75
2022-09-22T01:29:37.932Z,1020.72
2022-09-22T01:30:37.916Z,1020.73
2022-09-22T01:31:37.962Z,1020.69
2022-09-22T01:32:37.893Z,1020.73
2022-09-22T01:33:37.893Z,1020.67
2022-09-22T01:34:37.864Z,1020.66
2022-09-22T01:35:37.882Z,1020.70
2022-09-22T01:36:37.866Z,1020.64
2022-09-22T01:37:37.850Z,1020.58
2022-09-22T01:38:37.824Z,1020.68
2022-09-22T01:39:37.795Z,1020.67
2022-09-22T01:40:37.878Z,1020.68
2022-09-22T01:41:37.800Z,1020.66
2022-09-22T01:42:37.804Z,1020.64
2022-09-22T01:43:37.763Z,1020.66
2022-09-22T01:44:37.763Z,1020.61
2022-09-22T01:45:37.764Z,1020.60
2022-09-22T01:46:37.805Z,1020.68
2022-09-22T01:47:37.746Z,1020.58
2022-09-22T01:48:37.714Z,1020.60
2022-09-22T01:49:37.699Z,1020.55
2022-09-22T01:50:37.711Z,1020.56
2022-09-22T01:51:37.690Z,1020.62
2022-09-22T01:52:37.666Z,1020.59
2022-09-22T01:53:37.670Z,1020.57
2022-09-22T01:54:37.649Z,1020.53
2022-09-22T01:55:37.628Z,1020.53
2022-09-22T01:56:37.624Z,1020.49
2022-09-22T01:57:37.623Z,1020.51
2022-09-22T01:58:37.591Z,1020.49
2022-09-22T01:59:37.613Z,1020.46
2022-09-22T02:00:37.590Z,1020.51
2022-09-22T02:01:37.663Z,1020.45
2022-09-22T02:02:37.701Z,1020.43
2022-09-22T02:03:37.530Z,1020.45
2022-09-22T02:04:37.539Z,1020.48
2022-09-22T02:05:37.545Z,1020.36
2022-09-22T02:06:37.510Z,1020.42
2022-09-22T02:07:37.501Z,1020.41
2022-09-22T02:08:37.492Z,1020.38
2022-09-22T02:09:37.505Z,1020.42
2022-09-22T02:10:37.471Z,1020.36
2022-09-22T02:11:37.450Z,1020.37
2022-09-22T02:12:37.442Z,1020.42
2022-09-22T02:13:37.421Z,1020.42
2022-09-22T02:14:37.444Z,1020.42
2022-09-22T02:15:37.432Z,1020.29
2022-09-22T02:16:37.420Z,1020.37
2022-09-22T02:17:37.376Z,1020.25
2022-09-22T02:18:37.395Z,1020.35
2022-09-22T02:19:37.514Z,1020.35
2022-09-22T02:20:37.353Z,1020.31
2022-09-22T02:21:37.373Z,1020.31
2022-09-22T02:22:37.339Z,1020.32
2022-09-22T02:23:37.315Z,1020.33
2022-09-22T02:24:37.336Z,1020.29
2022-09-22T02:25:37.308Z,1020.31
2022-09-22T02:26:37.326Z,1020.30
2022-09-22T02:27:37.281Z,1020.29
2022-09-22T02:28:37.264Z,1020.32
2022-09-22T02:29:37.326Z,1020.28
2022-09-22T02:30:37.241Z,1020.27
2022-09-22T02:31:37.301Z,1020.26
2022-09-22T02:32:37.278Z,1020.28
2022-09-22T02:33:38.281Z,1020.29
2022-09-22T02:34:37.233Z,1020.30
2022-09-22T02:35:37.250Z,1020.27
2022-09-22T02:36:37.179Z,1020.28
2022-09-22T02:37:37.168Z,1020.28
2022-09-22T02:38:37.247Z,1020.32
2022-09-22T02:39:37.185Z,1020.26
2022-09-22T02:40:37.155Z,1020.28
2022-09-22T02:41:37.116Z,1020.30
2022-09-22T02:42:37.105Z,1020.26
2022-09-22T02:43:37.108Z,1020.24
2022-09-22T02:44:37.130Z,1020.20
2022-09-22T02:45:38.032Z,1020.19
2022-09-22T02:46:37.124Z,1020.21
2022-09-22T02:47:37.048Z,1020.17
2022-09-22T02:48:37.067Z,1020.19
2022-09-22T02:49:37.031Z,1020.21
2022-09-22T02:50:37.074Z,1020.25
2022-09-22T02:51:37.006Z,1020.23
2022-09-22T02:52:37.007Z,1020.21
2022-09-22T02:53:36.993Z,1020.21
2022-09-22T02:54:36.979Z,1020.19
2022-09-22T02:55:37.001Z,1020.24
2022-09-22T02:56:36.963Z,1020.25
2022-09-22T02:57:36.943Z,1020.23
2022-09-22T02:58:36.933Z,1020.25
2022-09-22T02:59:36.928Z,1020.18
2022-09-22T03:00:36.945Z,1020.23
2022-09-22T03:01:36.923Z,1020.15
2022-09-22T03:02:36.915Z,1020.19
2022-09-22T03:03:36.921Z,1020.15
2022-09-22T03:04:36.965Z,1020.15
2022-09-22T03:05:36.879Z,1020.16
2022-09-22T03:06:36.898Z,1020.17
2022-09-22T03:07:36.853Z,1020.11
2022-09-22T03:08:36.831Z,1020.08
2022-09-22T03:09:36.811Z,1020.10
2022-09-22T03:10:36.819Z,1020.13
2022-09-22T03:11:36.794Z,1020.12
2022-09-22T03:12:36.831Z,1020.14
2022-09-22T03:13:36.801Z,1020.11
2022-09-22T03:14:36.763Z,1020.12
2022-09-22T03:15:36.837Z,1020.15
2022-09-22T03:16:36.748Z,1020.13
2022-09-22T03:17:36.758Z,1020.19
2022-09-22T03:18:36.732Z,1020.10
2022-09-22T03:19:43.400Z,1020.10
2022-09-22T03:20:36.694Z,1020.15
2022-09-22T03:21:36.675Z,1020.06
2022-09-22T03:22:36.675Z,1020.09
2022-09-22T03:23:36.686Z,1020.11
2022-09-22T03:24:36.655Z,1020.07
2022-09-22T03:25:36.686Z,1020.05
2022-09-22T03:26:36.626Z,1020.03
2022-09-22T03:27:36.631Z,1020.01
2022-09-22T03:28:36.618Z,1020.03
2022-09-22T03:29:36.605Z,1020.02
2022-09-22T03:30:36.653Z,1020.00
2022-09-22T03:31:36.596Z,1020.04
2022-09-22T03:32:36.587Z,1020.07
2022-09-22T03:33:36.570Z,1020.03
2022-09-22T03:34:36.537Z,1020.04
2022-09-22T03:35:36.555Z,1019.99
2022-09-22T03:36:36.518Z,1020.02
2022-09-22T03:37:36.557Z,1020.05
2022-09-22T03:38:36.496Z,1019.98
2022-09-22T03:39:36.499Z,1020.00
2022-09-22T03:40:36.512Z,1019.89
2022-09-22T03:41:36.458Z,1019.91
2022-09-22T03:42:36.488Z,1019.93
2022-09-22T03:43:36.469Z,1019.92
2022-09-22T03:44:36.419Z,1019.93
2022-09-22T03:45:36.427Z,1019.93
2022-09-22T03:46:36.429Z,1019.94
2022-09-22T03:47:36.392Z,1019.94
2022-09-22T03:48:36.398Z,1019.94
2022-09-22T03:49:36.375Z,1019.97
2022-09-22T03:50:36.409Z,1019.89
2022-09-22T03:51:36.357Z,1019.91
2022-09-22T03:52:36.343Z,1019.88
2022-09-22T03:53:36.354Z,1019.89
2022-09-22T03:54:36.317Z,1019.89
2022-09-22T03:55:36.321Z,1019.88
2022-09-22T03:56:36.331Z,1019.89
2022-09-22T03:57:36.309Z,1019.84
2022-09-22T03:58:36.274Z,1019.81
2022-09-22T03:59:36.261Z,1019.84
2022-09-22T04:00:36.252Z,1019.83
2022-09-22T04:01:36.298Z,1019.84
2022-09-22T04:02:36.616Z,1019.82
2022-09-22T04:03:36.376Z,1019.81
2022-09-22T04:04:36.376Z,1019.84
2022-09-22T04:05:36.203Z,1019.81
2022-09-22T04:06:37.219Z,1019.80
2022-09-22T04:07:36.174Z,1019.78
2022-09-22T04:08:37.124Z,1019.79
2022-09-22T04:09:36.964Z,1019.80
2022-09-22T04:10:36.145Z,1019.76
2022-09-22T04:11:36.996Z,1019.80
2022-09-22T04:12:36.129Z,1019.75
2022-09-22T04:13:36.128Z,1019.72
2022-09-22T04:14:36.123Z,1019.74
2022-09-22T04:15:38.050Z,1019.73
2022-09-22T04:16:36.142Z,1019.76
2022-09-22T04:17:36.079Z,1019.69
2022-09-22T04:18:37.005Z,1019.73
2022-09-22T04:19:36.073Z,1019.69
2022-09-22T04:20:36.989Z,1019.72
2022-09-22T04:21:36.291Z,1019.77
2022-09-22T04:22:36.025Z,1019.72
2022-09-22T04:23:37.457Z,1019.74
2022-09-22T04:24:36.276Z,1019.81
2022-09-22T04:25:37.428Z,1019.78
2022-09-22T04:26:36.017Z,1019.75
2022-09-22T04:27:35.990Z,1019.78
2022-09-22T04:28:37.399Z,1019.77
2022-09-22T04:29:36.830Z,1019.81
2022-09-22T04:30:35.982Z,1019.72
2022-09-22T04:31:36.869Z,1019.72
2022-09-22T04:32:37.359Z,1019.83
2022-09-22T04:33:35.896Z,1019.82
2022-09-22T04:34:35.881Z,1019.78
2022-09-22T04:35:36.142Z,1019.73
2022-09-22T04:36:35.905Z,1019.80
2022-09-22T04:37:35.852Z,1019.79
2022-09-22T04:38:37.303Z,1019.80
2022-09-22T04:39:36.812Z,1019.79
2022-09-22T04:40:36.684Z,1019.77
2022-09-22T04:41:35.803Z,1019.74
2022-09-22T04:42:35.811Z,1019.78
2022-09-22T04:43:37.231Z,1019.79
2022-09-22T04:44:36.643Z,1019.77
2022-09-22T04:45:39.515Z,1019.75
2022-09-22T04:46:35.984Z,1019.74
2022-09-22T04:47:35.774Z,1019.70
2022-09-22T04:48:35.735Z,1019.72
2022-09-22T04:49:35.757Z,1019.71
2022-09-22T04:50:35.942Z,1019.72
2022-09-22T04:51:35.715Z,1019.73
2022-09-22T04:52:36.217Z,1019.73
2022-09-22T04:53:35.754Z,1019.72
2022-09-22T04:54:35.714Z,1019.78
2022-09-22T04:55:35.654Z,1019.75
2022-09-22T04:56:37.113Z,1019.80
2022-09-22T04:57:35.636Z,1019.81
2022-09-22T04:58:35.806Z,1019.75
2022-09-22T04:59:36.414Z,1019.75
2022-09-22T05:00:35.598Z,1019.71
2022-09-22T05:01:35.716Z,1019.79
2022-09-22T05:02:35.570Z,1019.78
2022-09-22T05:03:37.190Z,1019.79
2022-09-22T05:04:35.603Z,1019.79
2022-09-22T05:05:35.575Z,1019.76
2022-09-22T05:06:35.560Z,1019.78
2022-09-22T05:07:35.518Z,1019.78
2022-09-22T05:08:35.523Z,1019.81
2022-09-22T05:09:35.506Z,1019.79
2022-09-22T05:10:35.505Z,1019.78
2022-09-22T05:11:35.473Z,1019.79
2022-09-22T05:12:36.255Z,1019.88
2022-09-22T05:13:35.477Z,1019.77
2022-09-22T05:14:35.487Z,1019.85
2022-09-22T05:15:35.459Z,1019.83
2022-09-22T05:16:35.520Z,1019.81
2022-09-22T05:17:35.496Z,1019.80
2022-09-22T05:18:35.459Z,1019.88
2022-09-22T05:19:35.382Z,1019.80
2022-09-22T05:20:35.358Z,1019.81
2022-09-22T05:21:35.363Z,1019.85
2022-09-22T05:22:39.838Z,1019.81
2022-09-22T05:23:35.532Z,1019.84
2022-09-22T05:24:35.468Z,1019.84
2022-09-22T05:25:35.312Z,1019.86
2022-09-22T05:26:35.500Z,1019.84
2022-09-22T05:27:35.305Z,1019.94
2022-09-22T05:28:35.450Z,1019.90
2022-09-22T05:29:35.270Z,1019.89
2022-09-22T05:30:35.284Z,1019.91
2022-09-22T05:31:35.504Z,1019.91
2022-09-22T05:32:35.318Z,1019.91
2022-09-22T05:33:35.257Z,1019.94
2022-09-22T05:34:35.200Z,1019.86
2022-09-22T05:35:37.009Z,1019.94
2022-09-22T05:36:35.185Z,1019.91
2022-09-22T05:37:35.249Z,1019.90
2022-09-22T05:38:35.177Z,1019.92
2022-09-22T05:39:35.164Z,1019.91
2022-09-22T05:40:35.309Z,1019.92
2022-09-22T05:41:35.535Z,1019.90
2022-09-22T05:42:35.495Z,1019.89
2022-09-22T05:43:35.155Z,1019.96
2022-09-22T05:44:35.130Z,1019.91
2022-09-22T05:45:35.121Z,1019.94
2022-09-22T05:46:35.074Z,1019.88
2022-09-22T05:47:35.061Z,1019.91
2022-09-22T05:48:35.068Z,1019.89
2022-09-22T05:49:35.069Z,1019.85
2022-09-22T05:50:35.034Z,1019.92
2022-09-22T05:51:35.015Z,1019.91
2022-09-22T05:52:35.004Z,1019.89
2022-09-22T05:53:35.847Z,1019.92
2022-09-22T05:54:35.017Z,1019.92
2022-09-22T05:55:35.055Z,1019.91
2022-09-22T05:56:35.932Z,1019.92
2022-09-22T05:57:34.962Z,1019.92
2022-09-22T05:58:34.930Z,1019.89
2022-09-22T05:59:34.956Z,1019.93
2022-09-22T06:00:34.959Z,1019.93
2022-09-22T06:01:34.907Z,1019.94
2022-09-22T06:02:34.945Z,1019.90
2022-09-22T06:03:34.893Z,1019.95
2022-09-22T06:04:34.889Z,1019.92
2022-09-22T06:05:37.503Z,1019.92
2022-09-22T06:06:34.927Z,1019.93
2022-09-22T06:07:34.862Z,1019.90
2022-09-22T06:08:34.840Z,1019.97
2022-09-22T06:09:34.927Z,1019.99
2022-09-22T06:10:34.818Z,1019.93
2022-09-22T06:11:34.859Z,1019.99
2022-09-22T06:12:34.798Z,1019.98
2022-09-22T06:13:34.810Z,1019.98
2022-09-22T06:14:35.073Z,1019.98
2022-09-22T06:15:34.760Z,1019.98
2022-09-22T06:16:35.739Z,1020.02
2022-09-22T06:17:36.198Z,1020.05
2022-09-22T06:18:34.746Z,1020.03
2022-09-22T06:19:34.709Z,1020.01
2022-09-22T06:20:34.713Z,1019.96
2022-09-22T06:21:34.690Z,1019.96
2022-09-22T06:22:34.709Z,1019.99
2022-09-22T06:23:37.320Z,1019.95
2022-09-22T06:24:34.671Z,1019.96
2022-09-22T06:25:34.642Z,1019.96
2022-09-22T06:26:34.634Z,1019.97
2022-09-22T06:27:34.956Z,1019.95
2022-09-22T06:28:34.632Z,1019.97
2022-09-22T06:29:34.606Z,1019.99
2022-09-22T06:30:34.612Z,1019.94
2022-09-22T06:31:35.060Z,1019.97
2022-09-22T06:32:36.022Z,1019.93
2022-09-22T06:33:34.573Z,1019.93
2022-09-22T06:34:34.728Z,1019.98
2022-09-22T06:35:34.553Z,1019.91
2022-09-22T06:36:34.553Z,1019.87
2022-09-22T06:37:34.527Z,1019.88
2022-09-22T06:38:34.512Z,1019.89
2022-09-22T06:39:34.955Z,1019.93
2022-09-22T06:40:34.524Z,1019.91
2022-09-22T06:41:34.626Z,1019.90
2022-09-22T06:42:34.544Z,1019.95
2022-09-22T06:43:34.445Z,1019.96
2022-09-22T06:44:35.016Z,1019.95
2022-09-22T06:45:35.080Z,1019.90
2022-09-22T06:46:35.379Z,1019.90
2022-09-22T06:47:34.601Z,1019.97
2022-09-22T06:48:34.479Z,1019.89
2022-09-22T06:49:34.385Z,1019.94
2022-09-22T06:50:34.415Z,1020.00
2022-09-22T06:51:34.377Z,1019.98
2022-09-22T06:52:37.215Z,1019.97
2022-09-22T06:53:35.022Z,1019.99
2022-09-22T06:54:34.326Z,1019.99
2022-09-22T06:55:34.316Z,1019.98
2022-09-22T06:56:36.785Z,1020.01
2022-09-22T06:57:34.307Z,1019.97
2022-09-22T06:58:52.449Z,1020.02
2022-09-22T06:59:35.271Z,1020.06
2022-09-22T07:00:34.390Z,1019.97
2022-09-22T07:01:34.335Z,1019.98
2022-09-22T07:02:34.234Z,1020.01
2022-09-22T07:03:34.254Z,1020.00
2022-09-22T07:04:34.239Z,1019.99
2022-09-22T07:05:35.151Z,1020.01
2022-09-22T07:06:34.207Z,1020.02
2022-09-22T07:07:34.184Z,1020.01
2022-09-22T07:08:34.166Z,1019.98
2022-09-22T07:09:34.189Z,1019.92
2022-09-22T07:10:34.162Z,1019.94
2022-09-22T07:11:37.580Z,1019.96
2022-09-22T07:12:35.123Z,1019.92
2022-09-22T07:13:34.113Z,1019.94
2022-09-22T07:14:34.117Z,1019.92
2022-09-22T07:15:34.119Z,1019.92
2022-09-22T07:16:34.119Z,1019.87
2022-09-22T07:17:34.102Z,1019.88
2022-09-22T07:18:34.076Z,1019.90
2022-09-22T07:19:34.086Z,1019.85
2022-09-22T07:20:34.048Z,1019.89
2022-09-22T07:21:34.033Z,1019.80
2022-09-22T07:22:34.004Z,1019.89
2022-09-22T07:23:34.013Z,1019.81
2022-09-22T07:24:33.998Z,1019.82
2022-09-22T07:25:34.015Z,1019.84
2022-09-22T07:26:33.973Z,1019.79
2022-09-22T07:27:33.963Z,1019.89
2022-09-22T07:28:33.964Z,1019.84
2022-09-22T07:29:33.956Z,1019.88
2022-09-22T07:30:33.927Z,1019.88
2022-09-22T07:31:34.002Z,1019.87
2022-09-22T07:32:33.970Z,1019.83
2022-09-22T07:33:33.911Z,1019.85
2022-09-22T07:34:33.886Z,1019.87
2022-09-22T07:35:33.918Z,1019.80
2022-09-22T07:36:34.043Z,1019.81
2022-09-22T07:37:33.899Z,1019.83
2022-09-22T07:38:33.836Z,1019.82
2022-09-22T07:39:33.816Z,1019.83
2022-09-22T07:40:33.977Z,1019.89
2022-09-22T07:41:33.827Z,1019.88
2022-09-22T07:42:34.784Z,1019.92
2022-09-22T07:43:33.916Z,1019.83
2022-09-22T07:44:35.374Z,1019.84
2022-09-22T07:45:34.784Z,1019.87
2022-09-22T07:46:33.933Z,1019.85
2022-09-22T07:47:33.992Z,1019.84
2022-09-22T07:48:33.900Z,1019.83
2022-09-22T07:49:33.729Z,1019.81
2022-09-22T07:50:34.178Z,1019.84
2022-09-22T07:51:33.862Z,1019.80
2022-09-22T07:52:33.856Z,1019.79
2022-09-22T07:53:33.676Z,1019.75
2022-09-22T07:54:33.887Z,1019.91
2022-09-22T07:55:34.037Z,1019.89
2022-09-22T07:56:33.699Z,1019.83
2022-09-22T07:57:33.668Z,1019.88
2022-09-22T07:58:33.860Z,1019.84
2022-09-22T07:59:33.815Z,1019.80
2022-09-22T08:00:33.651Z,1019.87
2022-09-22T08:01:33.672Z,1019.87
2022-09-22T08:02:33.572Z,1019.83
2022-09-22T08:03:33.581Z,1019.74
2022-09-22T08:04:33.584Z,1019.76
2022-09-22T08:05:33.713Z,1019.76
2022-09-22T08:06:33.602Z,1019.68
2022-09-22T08:07:33.517Z,1019.74
2022-09-22T08:08:34.972Z,1019.72
2022-09-22T08:09:33.499Z,1019.75
2022-09-22T08:10:33.516Z,1019.79
2022-09-22T08:11:34.342Z,1019.75
2022-09-22T08:12:33.498Z,1019.76
2022-09-22T08:13:33.442Z,1019.80
2022-09-22T08:14:33.635Z,1019.82
2022-09-22T08:15:34.425Z,1019.79
2022-09-22T08:16:33.497Z,1019.72
2022-09-22T08:17:33.773Z,1019.75
2022-09-22T08:18:33.464Z,1019.77
2022-09-22T08:19:33.385Z,1019.77
2022-09-22T08:20:40.683Z,1019.69
2022-09-22T08:21:34.375Z,1019.77
2022-09-22T08:22:33.877Z,1019.74
2022-09-22T08:23:33.381Z,1019.72
2022-09-22T08:24:33.522Z,1019.76
2022-09-22T08:25:33.317Z,1019.74
2022-09-22T08:26:33.287Z,1019.73
2022-09-22T08:27:33.298Z,1019.77
2022-09-22T08:28:33.299Z,1019.74
2022-09-22T08:29:33.268Z,1019.67
2022-09-22T08:30:33.315Z,1019.71
2022-09-22T08:31:34.807Z,1019.67
2022-09-22T08:32:33.862Z,1019.64
2022-09-22T08:33:34.672Z,1019.66
2022-09-22T08:34:33.210Z,1019.74
2022-09-22T08:35:33.561Z,1019.70
2022-09-22T08:36:33.928Z,1019.66
2022-09-22T08:37:33.188Z,1019.67
2022-09-22T08:38:33.204Z,1019.72
2022-09-22T08:39:33.347Z,1019.70
2022-09-22T08:40:33.187Z,1019.70
2022-09-22T08:41:33.150Z,1019.68
2022-09-22T08:42:33.131Z,1019.69
2022-09-22T08:43:33.101Z,1019.70
2022-09-22T08:44:33.133Z,1019.72
2022-09-22T08:45:33.072Z,1019.65
2022-09-22T08:46:33.133Z,1019.70
2022-09-22T08:47:33.093Z,1019.68
2022-09-22T08:48:33.077Z,1019.67
2022-09-22T08:49:33.097Z,1019.70
2022-09-22T08:50:33.102Z,1019.70
2022-09-22T08:51:33.043Z,1019.64
2022-09-22T08:52:33.005Z,1019.67
2022-09-22T08:53:33.067Z,1019.69
2022-09-22T08:54:32.998Z,1019.67
2022-09-22T08:55:33.016Z,1019.67
2022-09-22T08:56:32.990Z,1019.70
2022-09-22T08:57:32.997Z,1019.73
2022-09-22T08:58:33.107Z,1019.76
2022-09-22T08:59:32.984Z,1019.77
2022-09-22T09:00:32.958Z,1019.75
2022-09-22T09:01:33.085Z,1019.72
2022-09-22T09:02:33.033Z,1019.76
2022-09-22T09:03:32.902Z,1019.71
2022-09-22T09:04:32.938Z,1019.72
2022-09-22T09:05:32.887Z,1019.76
2022-09-22T09:06:32.885Z,1019.73
2022-09-22T09:07:32.911Z,1019.72
2022-09-22T09:08:32.848Z,1019.73
2022-09-22T09:09:32.836Z,1019.74
2022-09-22T09:10:32.842Z,1019.73
2022-09-22T09:11:32.895Z,1019.72
2022-09-22T09:12:32.833Z,1019.72
2022-09-22T09:13:32.802Z,1019.69
2022-09-22T09:14:32.793Z,1019.74
2022-09-22T09:15:32.761Z,1019.75
2022-09-22T09:16:35.612Z,1019.74
2022-09-22T09:17:33.926Z,1019.76
2022-09-22T09:18:32.763Z,1019.68
2022-09-22T09:19:32.732Z,1019.67
2022-09-22T09:20:32.732Z,1019.72
2022-09-22T09:21:32.695Z,1019.70
2022-09-22T09:22:32.686Z,1019.72
2022-09-22T09:25:33.975Z,1019.74
2022-09-22T09:26:32.745Z,1019.75
2022-09-22T09:27:32.634Z,1019.66
2022-09-22T09:28:32.862Z,1019.69
2022-09-22T09:29:32.602Z,1019.70
2022-09-22T09:30:32.606Z,1019.74
2022-09-22T09:31:32.642Z,1019.71
2022-09-22T09:32:32.606Z,1019.72
2022-09-22T09:33:32.557Z,1019.73
2022-09-22T09:34:32.549Z,1019.70
2022-09-22T09:35:32.759Z,1019.66
2022-09-22T09:36:32.537Z,1019.64
2022-09-22T09:37:32.539Z,1019.65
2022-09-22T09:38:32.505Z,1019.67
2022-09-22T09:39:33.389Z,1019.63
2022-09-22T09:40:32.543Z,1019.59
2022-09-22T09:41:32.508Z,1019.59
2022-09-22T09:42:32.478Z,1019.61
2022-09-22T09:43:32.450Z,1019.60
2022-09-22T09:44:32.441Z,1019.62
2022-09-22T09:45:32.434Z,1019.63
2022-09-22T09:46:32.476Z,1019.64
2022-09-22T09:47:32.561Z,1019.60
2022-09-22T09:48:32.403Z,1019.61
2022-09-22T09:49:32.563Z,1019.65
2022-09-22T09:50:32.637Z,1019.61
2022-09-22T09:51:32.382Z,1019.57
2022-09-22T09:52:32.377Z,1019.63
2022-09-22T09:53:32.362Z,1019.59
2022-09-22T09:54:32.329Z,1019.59
2022-09-22T09:55:32.392Z,1019.56
2022-09-22T09:56:32.323Z,1019.54
2022-09-22T09:57:32.318Z,1019.53
2022-09-22T09:58:32.294Z,1019.52
2022-09-22T09:59:32.284Z,1019.59
2022-09-22T10:00:32.533Z,1019.53
2022-09-22T10:01:32.336Z,1019.50
2022-09-22T10:02:32.245Z,1019.50
2022-09-22T10:03:32.248Z,1019.46
2022-09-22T10:04:32.216Z,1019.42
2022-09-22T10:05:32.205Z,1019.42
2022-09-22T10:06:32.244Z,1019.41
2022-09-22T10:08:32.182Z,1019.37
2022-09-22T10:09:32.149Z,1019.38
2022-09-22T10:10:32.166Z,1019.42
2022-09-22T10:11:32.146Z,1019.35
2022-09-22T10:12:32.165Z,1019.38
2022-09-22T10:13:32.139Z,1019.32
2022-09-22T10:14:32.146Z,1019.34
2022-09-22T10:15:32.185Z,1019.34
2022-09-22T10:16:32.087Z,1019.26
2022-09-22T10:17:32.094Z,1019.24
2022-09-22T10:18:32.100Z,1019.28
2022-09-22T10:19:32.060Z,1019.25
2022-09-22T10:20:32.039Z,1019.25
2022-09-22T10:21:32.020Z,1019.27
2022-09-22T10:22:34.520Z,1019.26
2022-09-22T10:23:32.000Z,1019.30
2022-09-22T10:24:32.028Z,1019.17
2022-09-22T10:25:32.008Z,1019.16
2022-09-22T10:26:31.986Z,1019.18
2022-09-22T10:27:31.952Z,1019.18
2022-09-22T10:28:31.983Z,1019.18
2022-09-22T10:29:31.953Z,1019.16
2022-09-22T10:30:31.933Z,1019.21
2022-09-22T10:31:31.958Z,1019.17
2022-09-22T10:32:31.909Z,1019.17
2022-09-22T10:33:31.888Z,1019.13
2022-09-22T10:34:31.998Z,1019.19
2022-09-22T10:35:31.874Z,1019.09
2022-09-22T10:36:31.879Z,1019.14
2022-09-22T10:37:31.845Z,1019.03
2022-09-22T10:38:31.860Z,1019.02
2022-09-22T10:39:31.846Z,1019.07
2022-09-22T10:40:31.912Z,1019.09
2022-09-22T10:41:31.809Z,1019.08
2022-09-22T10:42:31.791Z,1019.03
2022-09-22T10:43:31.789Z,1019.10
2022-09-22T10:44:39.365Z,1019.14
2022-09-22T10:45:32.798Z,1019.11
2022-09-22T10:46:31.817Z,1019.09
2022-09-22T10:47:31.758Z,1019.09
2022-09-22T10:48:31.728Z,1019.07
2022-09-22T10:49:31.718Z,1019.06
2022-09-22T10:50:31.736Z,1019.10
2022-09-22T10:51:31.703Z,1019.02
2022-09-22T10:52:31.745Z,1019.03
2022-09-22T10:53:31.669Z,1018.98
2022-09-22T10:54:31.661Z,1019.03
2022-09-22T10:55:31.658Z,1019.00
2022-09-22T10:56:31.672Z,1019.06
2022-09-22T10:57:31.622Z,1019.00
2022-09-22T10:58:31.615Z,1018.95
2022-09-22T10:59:31.610Z,1018.95
2022-09-22T11:00:35.238Z,1018.93
2022-09-22T11:01:32.689Z,1018.99
2022-09-22T11:02:31.588Z,1018.94
2022-09-22T11:03:31.923Z,1018.99
2022-09-22T11:04:31.645Z,1018.96
2022-09-22T11:05:31.649Z,1018.94
2022-09-22T11:06:31.531Z,1018.97
2022-09-22T11:07:31.554Z,1018.92
2022-09-22T11:08:31.503Z,1018.91
2022-09-22T11:09:31.578Z,1018.87
2022-09-22T11:10:32.006Z,1018.92
2022-09-22T11:11:33.550Z,1018.94
2022-09-22T11:12:31.457Z,1018.95
2022-09-22T11:13:31.471Z,1018.96
2022-09-22T11:14:31.478Z,1018.90
2022-09-22T11:15:31.487Z,1018.96
2022-09-22T11:16:31.435Z,1019.01
2022-09-22T11:17:31.563Z,1018.91
2022-09-22T11:18:31.427Z,1018.91
2022-09-22T11:19:31.386Z,1018.89
2022-09-22T11:20:31.379Z,1018.87
2022-09-22T11:21:31.389Z,1018.84
2022-09-22T11:22:31.358Z,1018.82
2022-09-22T11:23:32.361Z,1018.85
2022-09-22T11:24:31.331Z,1018.79
2022-09-22T11:25:31.313Z,1018.80
2022-09-22T11:26:31.340Z,1018.76
2022-09-22T11:27:31.311Z,1018.90
2022-09-22T11:28:31.409Z,1018.79
2022-09-22T11:29:31.272Z,1018.75
2022-09-22T11:30:31.444Z,1018.75
2022-09-22T11:31:31.288Z,1018.76
2022-09-22T11:32:31.244Z,1018.78
2022-09-22T11:33:31.654Z,1018.71
2022-09-22T11:34:31.854Z,1018.73
2022-09-22T11:35:31.221Z,1018.69
2022-09-22T11:36:31.244Z,1018.68
2022-09-22T11:37:31.237Z,1018.65
2022-09-22T11:38:31.194Z,1018.64
2022-09-22T11:39:31.170Z,1018.65
2022-09-22T11:40:31.197Z,1018.66
2022-09-22T11:41:31.132Z,1018.62
2022-09-22T11:42:31.256Z,1018.60
2022-09-22T11:43:31.116Z,1018.59
2022-09-22T11:44:31.933Z,1018.54
2022-09-22T11:45:31.366Z,1018.56
2022-09-22T11:46:31.264Z,1018.63
2022-09-22T11:47:31.072Z,1018.60
2022-09-22T11:48:31.090Z,1018.57
2022-09-22T11:49:31.050Z,1018.52
2022-09-22T11:50:31.039Z,1018.59
2022-09-22T11:51:31.052Z,1018.51
2022-09-22T11:52:31.035Z,1018.50
2022-09-22T11:53:31.099Z,1018.49
2022-09-22T11:54:31.018Z,1018.41
2022-09-22T11:55:30.976Z,1018.42
2022-09-22T11:56:30.975Z,1018.38
2022-09-22T11:57:31.003Z,1018.42
2022-09-22T11:58:30.961Z,1018.43
2022-09-22T11:59:30.938Z,1018.37
2022-09-22T12:00:30.957Z,1018.36
2022-09-22T12:01:31.052Z,1018.33
2022-09-22T12:02:31.051Z,1018.29
2022-09-22T12:03:31.030Z,1018.29
2022-09-22T12:04:30.871Z,1018.31
2022-09-22T12:05:30.920Z,1018.33
2022-09-22T12:06:30.893Z,1018.26
2022-09-22T12:07:30.849Z,1018.23
2022-09-22T12:08:30.929Z,1018.24